Time;durP1;ratioP1;P1;durP2;ratioP2;P2;SDS_P1;SDS_P2;PMS_P1;PMS_P2;Temp;Humidity;BMP_temperature;BMP_pressure;BME280_temperature;BME280_humidity;BME280_pressure;Samples;Min_cycle;Max_cycle;Signal;HPM_P1;HPM_P2
2020/12/23 00:01:22;;;;;;;5.20;4.70;;;;;;;4.16;100.00;99147.62;1777997;79;21359;-66
2020/12/23 00:04:04;;;;;;;6.30;5.30;;;;;;;4.22;100.00;99139.39;1784845;79;21595;-69
2020/12/23 00:06:38;;;;;;;6.05;5.15;;;;;;;4.22;100.00;99136.38;1783788;79;21162;-64
2020/12/23 00:09:26;;;;;;;5.90;5.30;;;;;;;4.32;100.00;99135.86;1846781;76;28582;-65
2020/12/23 00:12:04;;;;;;;7.30;5.83;;;;;;;4.31;100.00;99135.02;1748944;79;21157;-66
2020/12/23 00:14:38;;;;;;;6.58;5.92;;;;;;;4.35;100.00;99137.09;1788588;79;21383;-66
2020/12/23 00:17:15;;;;;;;7.90;6.25;;;;;;;4.39;100.00;99138.78;1787318;79;21152;-65
2020/12/23 00:19:57;;;;;;;7.75;6.00;;;;;;;4.41;100.00;99139.60;1818073;79;21570;-66
2020/12/23 00:22:29;;;;;;;7.20;6.50;;;;;;;4.43;100.00;99138.70;1818029;78;21664;-66
2020/12/23 00:25:02;;;;;;;7.67;6.60;;;;;;;4.47;100.00;99133.53;1818221;78;21104;-68
2020/12/23 00:27:30;;;;;;;8.05;6.60;;;;;;;4.51;100.00;99136.03;1818026;79;22266;-66
2020/12/23 00:29:57;;;;;;;7.00;6.00;;;;;;;4.54;100.00;99136.02;1818003;79;21919;-67
2020/12/23 00:32:28;;;;;;;6.97;6.28;;;;;;;4.58;100.00;99132.51;1818032;79;21562;-66
2020/12/23 00:34:56;;;;;;;9.90;6.40;;;;;;;4.63;100.00;99140.19;1818094;79;21062;-65
2020/12/23 00:37:25;;;;;;;7.50;6.30;;;;;;;4.67;100.00;99134.10;1818106;79;21065;-64
2020/12/23 00:39:53;;;;;;;7.47;6.25;;;;;;;4.70;100.00;99132.36;1818077;79;21204;-66
2020/12/23 00:42:22;;;;;;;7.50;6.70;;;;;;;4.74;100.00;99135.28;1817947;79;21132;-65
2020/12/23 00:44:50;;;;;;;7.60;6.90;;;;;;;4.78;100.00;99131.41;1818021;78;21144;-65
2020/12/23 00:47:18;;;;;;;8.10;7.30;;;;;;;4.81;100.00;99136.49;1817989;79;21148;-65
2020/12/23 00:49:47;;;;;;;7.45;6.75;;;;;;;4.83;100.00;99130.88;1818071;79;21044;-65
2020/12/23 00:52:15;;;;;;;7.20;6.50;;;;;;;4.83;100.00;99129.16;1818010;78;22338;-65
2020/12/23 00:54:43;;;;;;;8.13;7.25;;;;;;;4.87;100.00;99136.41;1818057;79;21085;-65
2020/12/23 00:57:12;;;;;;;7.15;6.45;;;;;;;4.89;100.00;99132.08;1817995;79;21049;-64
2020/12/23 00:59:40;;;;;;;7.65;6.83;;;;;;;4.92;100.00;99132.06;1818069;78;21136;-65
2020/12/23 01:02:08;;;;;;;7.20;6.50;;;;;;;4.95;100.00;99132.00;1817928;79;21175;-66
2020/12/23 01:04:36;;;;;;;7.75;6.70;;;;;;;4.96;100.00;99125.53;1818045;79;21361;-64
2020/12/23 01:07:04;;;;;;;7.00;6.30;;;;;;;4.98;100.00;99128.08;1817942;79;21065;-65
2020/12/23 01:09:32;;;;;;;7.85;6.25;;;;;;;4.99;100.00;99134.96;1824649;78;21596;-65
2020/12/23 01:12:00;;;;;;;6.67;5.92;;;;;;;5.01;100.00;99125.48;1824494;78;21757;-65
2020/12/23 01:14:28;;;;;;;5.80;5.20;;;;;;;5.02;100.00;99133.62;1823994;78;21164;-65
2020/12/23 01:16:56;;;;;;;6.45;5.78;;;;;;;5.01;100.00;99136.63;1824422;78;21960;-65
2020/12/23 01:19:24;;;;;;;6.17;5.58;;;;;;;5.01;100.00;99132.77;1823899;78;21144;-65
2020/12/23 01:21:52;;;;;;;6.30;5.75;;;;;;;5.02;100.00;99129.75;1823819;78;21160;-65
2020/12/23 01:24:20;;;;;;;7.08;6.00;;;;;;;5.03;100.00;99130.16;1823966;78;21112;-65
2020/12/23 01:26:50;;;;;;;7.28;5.97;;;;;;;5.05;100.00;99133.55;1824019;78;21064;-66
2020/12/23 01:29:18;;;;;;;7.15;6.45;;;;;;;5.06;100.00;99126.67;1823861;78;22211;-65
2020/12/23 01:31:46;;;;;;;6.70;6.00;;;;;;;5.06;100.00;99121.52;1823916;78;21916;-65
2020/12/23 01:34:14;;;;;;;6.58;5.87;;;;;;;5.05;100.00;99116.81;1823880;78;21459;-65
2020/12/23 01:36:43;;;;;;;6.95;6.22;;;;;;;5.06;100.00;99117.22;1823981;78;21136;-65
2020/12/23 01:39:12;;;;;;;6.85;6.15;;;;;;;5.08;100.00;99117.22;1769098;78;21120;-65
2020/12/23 01:41:41;;;;;;;7.95;6.90;;;;;;;5.09;100.00;99108.17;1823982;78;21198;-66
2020/12/23 01:44:09;;;;;;;7.47;6.05;;;;;;;5.09;100.00;99113.33;1823877;78;21199;-65
2020/12/23 01:46:37;;;;;;;7.10;6.28;;;;;;;5.12;100.00;99111.13;1823965;78;21057;-65
2020/12/23 01:49:07;;;;;;;7.10;6.30;;;;;;;5.16;100.00;99106.36;1824073;78;21491;-65
2020/12/23 01:51:35;;;;;;;6.87;6.05;;;;;;;5.18;100.00;99105.89;1823850;78;21057;-66
2020/12/23 01:54:03;;;;;;;7.15;6.45;;;;;;;5.21;100.00;99108.00;1823764;78;21383;-65
2020/12/23 01:56:32;;;;;;;7.67;6.87;;;;;;;5.24;100.00;99100.64;1823543;78;21132;-65
2020/12/23 01:58:59;;;;;;;7.97;7.17;;;;;;;5.27;100.00;99100.14;1794645;78;21120;-65
2020/12/23 02:01:28;;;;;;;10.03;6.97;;;;;;;5.29;100.00;99096.27;1823896;78;21832;-65
2020/12/23 02:03:57;;;;;;;8.05;6.42;;;;;;;5.32;100.00;99095.36;1768929;78;21037;-65
2020/12/23 02:06:26;;;;;;;7.85;6.78;;;;;;;5.33;100.00;99098.34;1794751;78;21041;-65
2020/12/23 02:08:54;;;;;;;7.83;7.03;;;;;;;5.33;100.00;99097.91;1822253;78;21049;-64
2020/12/23 02:11:22;;;;;;;8.95;7.25;;;;;;;5.36;100.00;99096.99;1821447;78;21128;-65
2020/12/23 02:13:49;;;;;;;7.10;6.40;;;;;;;5.37;100.00;99100.01;1821355;78;21120;-65
2020/12/23 02:16:17;;;;;;;7.92;7.10;;;;;;;5.37;100.00;99098.72;1821417;78;21608;-65
2020/12/23 02:18:45;;;;;;;7.10;6.40;;;;;;;5.40;100.00;99091.77;1821451;78;21193;-65
2020/12/23 02:21:16;;;;;;;8.28;7.35;;;;;;;5.45;100.00;99095.58;1819529;78;21196;-64
2020/12/23 02:23:43;;;;;;;11.80;8.30;;;;;;;5.49;100.00;99101.07;1821298;78;21029;-65
2020/12/23 02:26:12;;;;;;;9.15;7.85;;;;;;;5.51;100.00;99094.15;1821420;78;21112;-65
2020/12/23 02:28:40;;;;;;;8.35;7.30;;;;;;;5.53;100.00;99095.00;1821228;78;21121;-65
2020/12/23 02:31:08;;;;;;;8.68;7.72;;;;;;;5.55;100.00;99091.95;1821318;78;21358;-65
2020/12/23 02:33:37;;;;;;;9.00;8.10;;;;;;;5.59;100.00;99098.73;1821272;78;21068;-65
2020/12/23 02:36:05;;;;;;;9.80;8.43;;;;;;;5.63;100.00;99105.99;1821305;78;21045;-66
2020/12/23 02:38:34;;;;;;;10.65;8.48;;;;;;;5.66;100.00;99091.30;1821389;78;21493;-65
2020/12/23 02:41:02;;;;;;;9.00;7.75;;;;;;;5.70;100.00;99092.95;1821383;78;21510;-65
2020/12/23 02:43:29;;;;;;;8.55;7.60;;;;;;;5.73;100.00;99094.62;1821191;78;21238;-65
2020/12/23 02:45:57;;;;;;;8.70;7.80;;;;;;;5.76;100.00;99091.56;1821022;78;21410;-65
2020/12/23 02:48:25;;;;;;;9.35;8.20;;;;;;;5.78;100.00;99088.51;1821375;78;21042;-66
2020/12/23 02:50:53;;;;;;;9.98;8.20;;;;;;;5.82;100.00;99083.72;1821065;78;21128;-65
2020/12/23 02:53:21;;;;;;;9.45;8.45;;;;;;;5.87;100.00;99087.92;1821237;78;21136;-66
2020/12/23 02:55:50;;;;;;;9.50;8.48;;;;;;;5.89;100.00;99097.77;1821129;78;21379;-65
2020/12/23 02:58:18;;;;;;;10.95;8.63;;;;;;;5.90;100.00;99087.44;1821260;78;21578;-65
2020/12/23 03:00:45;;;;;;;10.60;9.23;;;;;;;5.94;100.00;99096.84;1821271;78;21481;-65
2020/12/23 03:03:15;;;;;;;9.90;8.90;;;;;;;5.96;100.00;99101.52;1821222;78;21140;-66
2020/12/23 03:05:43;;;;;;;10.20;8.63;;;;;;;5.98;100.00;99102.36;1821407;78;21049;-65
2020/12/23 03:08:10;;;;;;;10.25;9.10;;;;;;;6.01;100.00;99098.86;1818871;78;21265;-65
2020/12/23 03:10:39;;;;;;;10.50;9.40;;;;;;;6.03;100.00;99104.39;1806118;79;21117;-65
2020/12/23 03:13:07;;;;;;;10.45;8.85;;;;;;;6.05;100.00;99110.40;1806039;79;21037;-66
2020/12/23 03:15:35;;;;;;;10.68;9.58;;;;;;;6.07;100.00;99109.07;1806114;79;21038;-65
2020/12/23 03:18:03;;;;;;;11.18;9.98;;;;;;;6.08;100.00;99105.61;1806077;79;21495;-65
2020/12/23 03:20:31;;;;;;;11.43;9.58;;;;;;;6.13;100.00;99106.38;1806090;79;21202;-65
2020/12/23 03:22:59;;;;;;;11.18;10.08;;;;;;;6.15;100.00;99104.61;1805846;79;21148;-65
2020/12/23 03:25:27;;;;;;;11.83;10.53;;;;;;;6.19;100.00;99098.48;1806140;78;21049;-65
2020/12/23 03:27:54;;;;;;;11.83;10.15;;;;;;;6.22;100.00;99097.15;1805977;79;21065;-64
2020/12/23 03:30:22;;;;;;;10.63;9.53;;;;;;;6.25;100.00;99103.53;1806261;79;21585;-64
2020/12/23 03:32:50;;;;;;;13.05;10.45;;;;;;;6.27;100.00;99103.08;1804525;79;21359;-64
2020/12/23 03:35:19;;;;;;;11.83;10.35;;;;;;;6.30;100.00;99105.59;1721803;83;21577;-64
2020/12/23 03:37:47;;;;;;;12.45;11.05;;;;;;;6.35;100.00;99105.50;1777159;80;21111;-64
2020/12/23 03:40:15;;;;;;;15.32;13.00;;;;;;;6.36;100.00;99111.07;1721734;83;21149;-65
2020/12/23 03:42:43;;;;;;;12.50;11.12;;;;;;;6.38;100.00;99105.42;1777146;80;21073;-64
2020/12/23 03:45:11;;;;;;;14.20;11.40;;;;;;;6.39;100.00;99107.97;1721733;83;23597;-65
2020/12/23 03:47:39;;;;;;;12.65;10.70;;;;;;;6.43;100.00;99110.51;1777008;80;21158;-65
2020/12/23 03:50:08;;;;;;;14.73;11.65;;;;;;;6.46;100.00;99107.41;1721708;82;21165;-65
2020/12/23 03:52:36;;;;;;;13.18;10.88;;;;;;;6.49;100.00;99109.06;1777130;80;21064;-65
2020/12/23 03:55:05;;;;;;;13.70;11.97;;;;;;;6.49;100.00;99124.11;1721857;82;21109;-66
2020/12/23 03:57:33;;;;;;;15.35;12.18;;;;;;;6.49;100.00;99127.14;1777183;80;21197;-65
2020/12/23 04:00:07;;;;;;;13.28;11.88;;;;;;;6.50;100.00;99118.50;1730426;80;21151;-65
2020/12/23 04:02:37;;;;;;;13.55;11.55;;;;;;;6.51;100.00;99119.79;1804171;79;21056;-65
2020/12/23 04:05:07;;;;;;;14.10;12.43;;;;;;;6.51;100.00;99128.83;1804160;78;21073;-65
2020/12/23 04:07:36;;;;;;;14.60;11.97;;;;;;;6.51;100.00;99142.19;1804261;79;21059;-65
2020/12/23 04:10:05;;;;;;;15.25;12.40;;;;;;;6.51;100.00;99137.86;1800297;78;23595;-65
2020/12/23 04:12:38;;;;;;;12.73;11.33;;;;;;;6.52;100.00;99147.75;1799438;78;21137;-65
2020/12/23 04:15:06;;;;;;;13.55;11.97;;;;;;;6.52;100.00;99156.79;1799352;79;21047;-65
2020/12/23 04:17:34;;;;;;;13.25;11.63;;;;;;;6.52;100.00;99161.52;1799458;79;21046;-65
2020/12/23 04:20:05;;;;;;;13.65;11.83;;;;;;;6.55;100.00;99162.73;1799314;79;21117;-64
2020/12/23 04:22:34;;;;;;;13.32;11.57;;;;;;;6.55;100.00;99151.55;1799475;78;22429;-65
2020/12/23 04:25:05;;;;;;;19.42;13.38;;;;;;;6.57;100.00;99164.83;1799244;79;21121;-65
2020/12/23 04:27:35;;;;;;;20.50;14.70;;;;;;;6.57;100.00;99160.95;1799395;79;21063;-66
2020/12/23 04:30:04;;;;;;;20.08;14.78;;;;;;;6.58;100.00;99164.42;1799275;79;21141;-66
2020/12/23 04:32:33;;;;;;;19.45;14.43;;;;;;;6.57;100.00;99161.40;1799417;79;21122;-66
2020/12/23 04:35:04;;;;;;;17.32;13.18;;;;;;;6.57;100.00;99161.40;1799329;79;21181;-66
2020/12/23 04:37:34;;;;;;;13.80;11.35;;;;;;;6.56;100.00;99172.17;1799358;78;21157;-67
2020/12/23 04:40:03;;;;;;;13.93;11.75;;;;;;;6.57;100.00;99171.73;1799238;79;21098;-66
2020/12/23 04:42:34;;;;;;;13.68;11.80;;;;;;;6.59;100.00;99173.86;1799193;79;21149;-66
2020/12/23 04:45:03;;;;;;;14.15;12.00;;;;;;;6.59;100.00;99176.44;1798907;78;21126;-68
2020/12/23 04:47:32;;;;;;;14.13;11.65;;;;;;;6.58;100.00;99180.77;1799419;78;22215;-66
2020/12/23 04:50:01;;;;;;;12.53;11.25;;;;;;;6.58;100.00;99185.92;1798884;79;21170;-66
2020/12/23 04:52:33;;;;;;;12.65;11.35;;;;;;;6.59;100.00;99189.36;1799247;78;21559;-66
2020/12/23 04:55:04;;;;;;;11.90;10.60;;;;;;;6.61;100.00;99191.02;1799237;79;21117;-66
2020/12/23 04:57:35;;;;;;;13.18;11.78;;;;;;;6.64;100.00;99183.19;1799495;78;21106;-65
2020/12/23 05:00:06;;;;;;;12.45;11.18;;;;;;;6.68;100.00;99179.67;1799524;79;22080;-66
2020/12/23 05:02:37;;;;;;;13.20;11.05;;;;;;;6.71;100.00;99193.41;1799435;78;21535;-66
2020/12/23 05:05:06;;;;;;;12.78;11.48;;;;;;;6.71;100.00;99196.84;1796740;79;21066;-66
2020/12/23 05:07:34;;;;;;;13.05;11.63;;;;;;;6.72;100.00;99198.53;1799423;79;21063;-66
2020/12/23 05:10:04;;;;;;;13.45;11.83;;;;;;;6.74;100.00;99199.38;1799320;77;21114;-65
2020/12/23 05:12:31;;;;;;;15.88;12.63;;;;;;;6.75;100.00;99208.82;1732365;79;21268;-66
2020/12/23 05:15:04;;;;;;;13.60;12.13;;;;;;;6.77;100.00;99214.80;1799401;79;21121;-66
2020/12/23 05:17:32;;;;;;;14.63;11.88;;;;;;;6.81;100.00;99216.45;1799261;79;21115;-67
2020/12/23 05:20:00;;;;;;;11.10;9.90;;;;;;;6.85;100.00;99219.36;1799449;79;21146;-66
2020/12/23 05:22:28;;;;;;;10.95;9.68;;;;;;;6.90;100.00;99220.57;1781613;79;21213;-66
2020/12/23 05:24:56;;;;;;;10.10;8.58;;;;;;;6.95;100.00;99217.02;1781527;79;21197;-70
2020/12/23 05:27:24;;;;;;;9.33;7.65;;;;;;;6.99;100.00;99225.98;1781442;79;21174;-66
2020/12/23 05:29:54;;;;;;;6.72;6.03;;;;;;;7.01;100.00;99228.93;1781913;79;21051;-66
2020/12/23 05:32:22;;;;;;;6.03;5.00;;;;;;;7.04;100.00;99223.72;1756198;79;21586;-66
2020/12/23 05:34:51;;;;;;;5.25;4.47;;;;;;;7.07;100.00;99229.25;1799516;79;21567;-66
2020/12/23 05:37:20;;;;;;;4.35;3.95;;;;;;;7.10;100.00;99227.43;1799132;79;21177;-66
2020/12/23 05:39:47;;;;;;;4.15;3.70;;;;;;;7.14;100.00;99235.98;1799413;79;21118;-66
2020/12/23 05:42:17;;;;;;;3.50;3.20;;;;;;;7.15;100.00;99228.64;1799339;79;21158;-66
2020/12/23 05:44:57;;;;;;;4.72;3.15;;;;;;;7.13;100.00;99229.13;1757443;79;21133;-66
2020/12/23 05:47:27;;;;;;;3.72;3.40;;;;;;;7.13;100.00;99234.30;1816107;79;21037;-66
2020/12/23 05:49:54;;;;;;;4.60;3.80;;;;;;;7.15;100.00;99233.80;1788690;79;21360;-67
2020/12/23 05:52:23;;;;;;;4.70;4.08;;;;;;;7.13;100.00;99234.30;1817932;79;21626;-66
2020/12/23 05:54:53;;;;;;;4.22;3.67;;;;;;;7.14;100.00;99232.11;1817765;78;21553;-66
2020/12/23 05:57:21;;;;;;;3.92;3.30;;;;;;;7.15;100.00;99227.34;1818030;79;21124;-66
2020/12/23 05:59:49;;;;;;;4.05;3.60;;;;;;;7.14;100.00;99224.36;1794637;79;21111;-66
2020/12/23 06:02:17;;;;;;;3.27;2.98;;;;;;;7.14;100.00;99234.25;1785663;79;21417;-66
2020/12/23 06:04:47;;;;;;;3.42;2.45;;;;;;;7.14;100.00;99238.13;1732910;77;21160;-67
2020/12/23 06:07:15;;;;;;;2.30;2.17;;;;;;;7.09;100.00;99235.23;1771386;81;21076;-67
2020/12/23 06:09:49;;;;;;;2.77;2.58;;;;;;;7.04;100.00;99244.39;1847274;77;21062;-67
2020/12/23 06:12:22;;;;;;;3.45;3.02;;;;;;;7.01;100.00;99248.31;1780809;78;21169;-67
2020/12/23 06:15:00;;;;;;;4.80;4.00;;;;;;;6.99;100.00;99259.13;1778893;79;21736;-67
2020/12/23 06:17:28;;;;;;;5.80;5.12;;;;;;;6.99;100.00;99262.16;1799839;79;21602;-68
2020/12/23 06:20:02;;;;;;;4.85;4.00;;;;;;;6.94;100.00;99259.66;1803575;78;21215;-69
2020/12/23 06:22:30;;;;;;;6.28;5.53;;;;;;;6.92;100.00;99268.73;1803966;79;21673;-66
2020/12/23 06:25:00;;;;;;;8.75;6.60;;;;;;;6.90;100.00;99270.95;1805117;79;21089;-66
2020/12/23 06:27:32;;;;;;;8.50;7.10;;;;;;;6.89;100.00;99279.59;1804368;79;21626;-67
2020/12/23 06:30:02;;;;;;;12.68;11.35;;;;;;;6.88;100.00;99285.20;1786842;78;21105;-65
2020/12/23 06:32:30;;;;;;;11.28;10.18;;;;;;;6.87;100.00;99287.34;1805128;79;21114;-67
2020/12/23 06:34:59;;;;;;;6.87;6.17;;;;;;;6.85;100.00;99289.12;1805773;77;21503;-67
2020/12/23 06:37:32;;;;;;;4.65;4.25;;;;;;;6.83;100.00;99296.50;1813892;77;21151;-67
2020/12/23 06:40:01;;;;;;;4.10;3.75;;;;;;;6.82;100.00;99296.09;1811773;79;22224;-68
2020/12/23 06:42:29;;;;;;;4.05;3.75;;;;;;;6.81;100.00;99300.41;1783370;79;21652;-67
2020/12/23 06:45:12;;;;;;;6.53;4.08;;;;;;;6.77;100.00;99301.34;1773002;80;21578;-70
2020/12/23 06:47:43;;;;;;;4.35;3.95;;;;;;;6.74;100.00;99300.56;1732224;82;21136;-67
2020/12/23 06:50:28;;;;;;;3.12;2.92;;;;;;;6.71;100.00;99298.02;1709043;82;21187;-67
2020/12/23 06:52:57;;;;;;;4.40;4.00;;;;;;;6.68;100.00;99301.52;1721157;83;22233;-67
2020/12/23 06:55:48;;;;;;;5.53;4.62;;;;;;;6.64;100.00;99301.16;1721246;83;21092;-65
2020/12/23 06:58:40;;;;;;;5.90;4.58;;;;;;;6.62;100.00;99304.21;1788630;77;21193;-66
2020/12/23 07:01:19;;;;;;;4.10;3.70;;;;;;;6.56;100.00;99295.28;1840883;77;21731;-68
2020/12/23 07:03:50;;;;;;;3.20;3.00;;;;;;;6.53;100.00;99301.37;1756925;81;21121;-66
2020/12/23 07:06:33;;;;;;;3.83;3.52;;;;;;;6.53;100.00;99312.14;1722122;81;21968;-67
2020/12/23 07:09:06;;;;;;;4.35;3.60;;;;;;;6.51;100.00;99308.73;1727486;81;21920;-67
2020/12/23 07:11:37;;;;;;;5.00;3.15;;;;;;;6.53;100.00;99324.61;1741201;82;21059;-67
2020/12/23 07:14:14;;;;;;;4.87;3.67;;;;;;;6.53;100.00;99328.48;1741077;82;21166;-66
2020/12/23 07:16:46;;;;;;;5.10;3.20;;;;;;;6.54;100.00;99329.33;1755108;80;21185;-67
2020/12/23 07:19:15;;;;;;;3.10;2.90;;;;;;;6.53;100.00;99333.64;1787902;77;21377;-69
2020/12/23 07:21:47;;;;;;;3.47;2.95;;;;;;;6.53;100.00;99341.84;1730680;81;21590;-69
2020/12/23 07:24:16;;;;;;;3.02;2.70;;;;;;;6.52;100.00;99344.86;1748984;79;21207;-68
2020/12/23 07:26:44;;;;;;;6.75;5.58;;;;;;;6.51;100.00;99344.45;1747382;81;21599;-75
2020/12/23 07:29:20;;;;;;;9.73;7.75;;;;;;;6.53;100.00;99346.56;1681491;81;21165;-69
2020/12/23 07:31:48;;;;;;;6.55;5.70;;;;;;;6.56;100.00;99352.09;1704621;79;21210;-68
2020/12/23 07:34:18;;;;;;;6.75;5.92;;;;;;;6.55;100.00;99356.86;1718014;81;21174;-67
2020/12/23 07:36:53;;;;;;;6.22;5.65;;;;;;;6.55;100.00;99346.52;1755770;81;21198;-68
2020/12/23 07:39:21;;;;;;;7.40;5.90;;;;;;;6.56;100.00;99351.66;1721619;82;21142;-67
2020/12/23 07:41:56;;;;;;;5.87;5.15;;;;;;;6.58;100.00;99352.50;1744199;81;21198;-68
2020/12/23 07:44:26;;;;;;;7.47;6.28;;;;;;;6.58;100.00;99355.53;1724222;81;23618;-68
2020/12/23 07:47:06;;;;;;;5.75;4.47;;;;;;;6.59;100.00;99352.06;1735846;81;21186;-68
2020/12/23 07:49:40;;;;;;;4.20;3.80;;;;;;;6.59;100.00;99355.49;1743505;79;21465;-68
2020/12/23 07:52:08;;;;;;;3.77;3.35;;;;;;;6.59;100.00;99355.94;1744241;81;21197;-70
2020/12/23 07:54:36;;;;;;;5.22;4.72;;;;;;;6.60;100.00;99351.18;1735496;81;21174;-68
2020/12/23 07:57:04;;;;;;;5.65;5.05;;;;;;;6.59;100.00;99352.91;1750826;81;21219;-68
2020/12/23 07:59:33;;;;;;;7.12;5.33;;;;;;;6.60;100.00;99358.93;1748706;79;21203;-69
2020/12/23 08:02:04;;;;;;;5.50;4.80;;;;;;;6.58;100.00;99360.70;1760727;79;21206;-69
2020/12/23 08:04:33;;;;;;;7.50;4.40;;;;;;;6.56;100.00;99355.97;1749409;81;21907;-69
2020/12/23 08:07:02;;;;;;;4.42;3.60;;;;;;;6.54;100.00;99357.30;1747734;81;21237;-69
2020/12/23 08:09:31;;;;;;;4.90;4.22;;;;;;;6.55;100.00;99363.31;1748250;81;21370;-68
2020/12/23 08:11:58;;;;;;;4.28;3.85;;;;;;;6.55;100.00;99362.02;1743470;81;21112;-69
2020/12/23 08:14:26;;;;;;;5.97;5.40;;;;;;;6.58;100.00;99361.55;1760631;81;21171;-68
2020/12/23 08:16:58;;;;;;;5.67;4.92;;;;;;;6.60;100.00;99361.07;1744178;81;21187;-67
2020/12/23 08:19:26;;;;;;;5.20;4.53;;;;;;;6.60;100.00;99362.36;1733988;82;21179;-68
2020/12/23 08:21:54;;;;;;;9.23;6.47;;;;;;;6.61;100.00;99369.23;1736273;81;21736;-68
2020/12/23 08:24:22;;;;;;;9.13;6.72;;;;;;;6.62;100.00;99367.49;1679843;82;21172;-68
2020/12/23 08:26:50;;;;;;;6.90;5.85;;;;;;;6.64;100.00;99368.31;1741145;79;21203;-68
2020/12/23 08:29:18;;;;;;;7.30;5.80;;;;;;;6.67;100.00;99369.13;1736424;81;21155;-68
2020/12/23 08:31:46;;;;;;;5.87;5.28;;;;;;;6.69;100.00;99367.80;1748182;81;21159;-66
2020/12/23 08:34:17;;;;;;;6.40;5.62;;;;;;;6.73;100.00;99374.63;1748782;81;21134;-67
2020/12/23 08:36:53;;;;;;;7.92;6.47;;;;;;;6.76;100.00;99364.23;1739300;81;21159;-68
2020/12/23 08:39:27;;;;;;;10.08;6.53;;;;;;;6.81;100.00;99376.63;1745469;81;21436;-67
2020/12/23 08:42:01;;;;;;;6.87;5.75;;;;;;;6.84;100.00;99371.39;1723935;82;21196;-67
2020/12/23 08:44:30;;;;;;;6.67;5.45;;;;;;;6.86;100.00;99373.50;1746284;81;21623;-68
2020/12/23 08:47:03;;;;;;;8.18;6.00;;;;;;;6.87;100.00;99376.49;1747536;81;22196;-70
2020/12/23 08:49:31;;;;;;;6.15;5.20;;;;;;;6.88;100.00;99369.63;1745420;81;21185;-67
2020/12/23 08:51:59;;;;;;;7.62;5.47;;;;;;;6.91;100.00;99365.23;1748076;81;21191;-70
2020/12/23 08:54:28;;;;;;;6.87;5.20;;;;;;;6.97;100.00;99375.91;1744657;81;21517;-69
2020/12/23 08:56:56;;;;;;;8.35;6.47;;;;;;;7.04;100.00;99372.33;1743685;81;21204;-67
2020/12/23 08:59:25;;;;;;;9.50;7.40;;;;;;;7.13;100.00;99376.46;1751169;81;21215;-68
2020/12/23 09:01:55;;;;;;;10.75;7.87;;;;;;;7.22;99.81;99381.45;1738751;81;21230;-73
2020/12/23 09:04:30;;;;;;;8.90;6.60;;;;;;;7.27;99.36;99373.16;1736067;81;21509;-68
2020/12/23 09:06:58;;;;;;;6.72;5.92;;;;;;;7.31;98.93;99370.91;1746768;81;21691;-73
2020/12/23 09:09:28;;;;;;;6.33;5.12;;;;;;;7.31;98.17;99382.55;1739901;81;21148;-69
2020/12/23 09:12:04;;;;;;;5.90;5.20;;;;;;;7.31;97.30;99374.79;1735347;79;21420;-68
2020/12/23 09:14:37;;;;;;;5.70;4.70;;;;;;;7.30;97.22;99376.12;1737916;81;21155;-66
2020/12/23 09:17:13;;;;;;;6.53;5.20;;;;;;;7.31;96.58;99378.67;1731349;81;21653;-67
2020/12/23 09:20:05;;;;;;;5.60;4.50;;;;;;;7.30;96.56;99369.66;1734085;81;21148;-66
2020/12/23 09:22:36;;;;;;;5.67;4.55;;;;;;;7.30;95.98;99365.33;1693253;84;21251;-68
2020/12/23 09:28:14;;;;;;;;;;;;;;;7.32;95.72;99368.73;1867086;76;22795;-68
2020/12/23 09:30:52;;;;;;;6.28;4.30;;;;;;;7.29;95.74;99369.25;1834433;77;20286;-65
2020/12/23 09:33:26;;;;;;;5.12;4.40;;;;;;;7.29;95.49;99368.80;1850995;77;22455;-66
2020/12/23 09:42:06;;;;;;;4.37;3.98;;;;;;;7.21;95.07;99374.13;1807763;78;21204;-69
2020/12/23 09:44:50;;;;;;;5.17;3.87;;;;;;;7.17;94.98;99371.62;1808596;78;21187;-67
2020/12/23 09:47:21;;;;;;;4.60;4.05;;;;;;;7.12;94.91;99376.91;1800307;78;21357;-70
2020/12/23 09:49:55;;;;;;;4.05;3.65;;;;;;;7.07;94.80;99373.55;1806457;78;21211;-73
2020/12/23 09:52:33;;;;;;;4.15;3.50;;;;;;;6.98;94.16;99374.17;1810653;78;21595;-73
2020/12/23 09:55:36;;;;;;;5.37;3.70;;;;;;;6.89;94.41;99373.91;1812092;78;21442;-71
2020/12/23 09:59:04;;;;;;;6.58;5.12;;;;;;;6.84;94.84;99387.34;1795160;78;21652;-70
2020/12/23 10:02:36;;;;;;;5.58;4.50;;;;;;;6.82;95.17;99392.54;1802152;78;21140;-65
2020/12/23 10:05:12;;;;;;;4.50;3.70;;;;;;;6.85;94.78;99387.30;1790206;78;22106;-66
2020/12/23 10:07:42;;;;;;;7.42;4.58;;;;;;;6.90;94.72;99392.41;1800971;78;21168;-74
2020/12/23 10:10:14;;;;;;;4.08;3.60;;;;;;;6.97;94.58;99387.98;1810773;78;21092;-67
2020/12/23 10:12:47;;;;;;;4.33;3.83;;;;;;;7.06;94.35;99384.77;1807167;78;21194;-69
2020/12/23 10:15:17;;;;;;;3.85;3.50;;;;;;;7.13;93.94;99385.51;1809353;78;21412;-69
2020/12/23 10:17:45;;;;;;;4.33;3.25;;;;;;;7.21;93.27;99387.05;1800715;78;21215;-73
2020/12/23 10:20:22;;;;;;;4.28;3.12;;;;;;;7.30;92.88;99383.87;1803349;78;21200;-66
2020/12/23 10:22:54;;;;;;;4.85;3.55;;;;;;;7.39;92.06;99374.63;1810656;78;21183;-70
2020/12/23 10:25:24;;;;;;;5.17;4.53;;;;;;;7.48;92.29;99375.31;1804413;78;21450;-73
2020/12/23 10:28:05;;;;;;;5.12;4.35;;;;;;;7.60;92.44;99375.92;1808783;78;22958;-68
2020/12/23 10:30:45;;;;;;;5.75;3.75;;;;;;;7.70;92.25;99372.25;1804366;78;26088;-68
2020/12/23 10:33:41;;;;;;;4.65;2.98;;;;;;;7.75;89.94;99372.56;1803899;78;21195;-69
2020/12/23 10:36:39;;;;;;;3.67;3.12;;;;;;;7.71;88.45;99372.23;1803352;78;21726;-67
2020/12/23 10:39:26;;;;;;;3.75;2.90;;;;;;;7.70;89.01;99364.48;1802034;78;21533;-64
2020/12/23 10:42:14;;;;;;;3.65;3.05;;;;;;;7.72;87.75;99366.17;1759465;80;21237;-66
2020/12/23 10:44:46;;;;;;;6.00;3.02;;;;;;;7.75;87.38;99357.48;1759991;80;21297;-64
2020/12/23 10:47:39;;;;;;;4.12;3.08;;;;;;;7.75;86.72;99358.33;1742646;80;21202;-67
2020/12/23 10:50:12;;;;;;;3.83;3.42;;;;;;;7.73;86.28;99351.50;1816713;78;21175;-62
2020/12/23 10:52:44;;;;;;;3.95;3.00;;;;;;;7.66;85.78;99361.57;1809914;77;21604;-67
2020/12/23 10:55:13;;;;;;;5.85;4.00;;;;;;;7.60;86.45;99373.34;1814833;78;21575;-66
2020/12/23 10:57:43;;;;;;;4.85;3.72;;;;;;;7.56;86.54;99365.22;1806670;78;22255;-65
2020/12/23 11:00:13;;;;;;;4.25;3.75;;;;;;;7.47;86.95;99376.17;1810642;78;21159;-66
2020/12/23 11:02:45;;;;;;;3.30;3.00;;;;;;;7.36;85.84;99383.31;1818819;78;21170;-72
2020/12/23 11:05:16;;;;;;;12.18;7.53;;;;;;;7.25;86.17;99373.61;1788072;78;21681;-66
2020/12/23 11:07:46;;;;;;;6.97;6.25;;;;;;;7.16;85.85;99378.53;1815912;78;22301;-64
2020/12/23 11:10:17;;;;;;;5.72;4.70;;;;;;;7.05;85.80;99383.52;1811517;78;21107;-66
2020/12/23 11:12:52;;;;;;;5.55;4.70;;;;;;;6.93;86.07;99382.84;1783619;78;21493;-63
2020/12/23 11:15:22;;;;;;;5.03;3.37;;;;;;;6.91;86.64;99385.06;1788262;78;21933;-64
2020/12/23 11:17:51;;;;;;;3.47;3.05;;;;;;;6.89;86.96;99385.09;1788007;79;21178;-65
2020/12/23 11:20:21;;;;;;;3.80;3.40;;;;;;;6.90;87.30;99389.38;1784058;78;22247;-66
2020/12/23 11:22:49;;;;;;;4.70;4.20;;;;;;;6.90;87.43;99389.38;1751385;80;21892;-65
2020/12/23 11:25:19;;;;;;;4.65;4.25;;;;;;;6.90;87.54;99389.38;1819440;78;21610;-66
2020/12/23 11:27:50;;;;;;;5.03;4.00;;;;;;;6.95;87.44;99394.03;1810252;78;21199;-67
2020/12/23 11:30:22;;;;;;;4.08;3.10;;;;;;;6.98;87.36;99392.27;1816518;78;21179;-69
2020/12/23 11:32:55;;;;;;;5.30;3.87;;;;;;;7.04;86.98;99402.48;1813059;78;21156;-65
2020/12/23 11:35:25;;;;;;;5.28;4.40;;;;;;;7.06;86.02;99397.69;1816036;78;21176;-68
2020/12/23 11:37:56;;;;;;;4.30;3.90;;;;;;;7.06;84.85;99390.38;1802546;78;21155;-64
2020/12/23 11:40:27;;;;;;;3.70;3.20;;;;;;;7.04;83.35;99402.05;1798173;78;21814;-67
2020/12/23 11:42:55;;;;;;;4.25;3.60;;;;;;;7.03;83.15;99407.22;1786501;79;21552;-63
2020/12/23 11:45:26;;;;;;;5.15;4.10;;;;;;;7.01;82.66;99402.09;1798097;78;21220;-63
2020/12/23 11:47:55;;;;;;;5.70;5.10;;;;;;;6.96;83.04;99392.30;1785000;78;21142;-64
2020/12/23 11:50:24;;;;;;;7.58;5.83;;;;;;;6.91;83.14;99398.83;1784017;78;21620;-67
2020/12/23 11:52:53;;;;;;;6.75;5.28;;;;;;;6.83;83.55;99403.28;1744390;80;21243;-65
2020/12/23 11:55:22;;;;;;;7.90;6.33;;;;;;;6.75;82.33;99408.18;1787184;79;21160;-64
2020/12/23 11:58:04;;;;;;;5.95;5.28;;;;;;;6.65;82.80;99413.95;1747003;80;21103;-65
2020/12/23 12:00:35;;;;;;;15.63;9.80;;;;;;;6.58;82.79;99413.64;1806514;77;21147;-64